Time;durP1;ratioP1;P1;durP2;ratioP2;P2;SDS_P1;SDS_P2;PMS_P1;PMS_P2;Temp;Humidity;BMP_temperature;BMP_pressure;BME280_temperature;BME280_humidity;BME280_pressure;Samples;Min_cycle;Max_cycle;Signal;HPM_P1;HPM_P2
2023/09/01 00:01:09;;;;;;;9.60;4.30;;;;;;;21.04;62.94;100889.79;107356;1256;97879;-66
2023/09/01 00:04:08;;;;;;;8.90;4.70;;;;;;;20.93;63.74;100892.13;107318;1257;97821;-66
2023/09/01 00:06:36;;;;;;;9.00;4.50;;;;;;;20.84;64.00;100900.04;107351;1254;112306;-66
2023/09/01 00:09:04;;;;;;;8.10;4.00;;;;;;;20.78;64.31;100903.15;107384;1257;109224;-66
2023/09/01 00:11:32;;;;;;;11.00;4.80;;;;;;;20.74;64.12;100906.41;107336;1259;107928;-65
2023/09/01 00:14:02;;;;;;;7.10;4.10;;;;;;;20.72;64.19;100905.44;107346;1257;97838;-66
2023/09/01 00:16:30;;;;;;;9.80;4.90;;;;;;;20.67;64.70;100914.73;107326;1256;97790;-65
2023/09/01 00:18:58;;;;;;;6.50;4.80;;;;;;;20.62;64.62;100908.27;107323;1257;110763;-65
2023/09/01 00:21:27;;;;;;;8.90;4.60;;;;;;;20.60;64.53;100913.31;107365;1259;109825;-66
2023/09/01 00:23:55;;;;;;;9.50;5.10;;;;;;;20.58;64.20;100917.70;107369;1257;107826;-66
2023/09/01 00:26:23;;;;;;;6.90;4.20;;;;;;;20.60;64.34;100914.60;107285;1257;97953;-69
2023/09/01 00:28:52;;;;;;;11.50;5.20;;;;;;;20.56;64.85;100919.66;107359;1256;98004;-67
2023/09/01 00:31:20;;;;;;;7.80;4.60;;;;;;;20.49;65.01;100924.16;107320;1257;111208;-65
2023/09/01 00:33:49;;;;;;;8.20;4.30;;;;;;;20.49;64.67;100924.39;107402;1256;109355;-66
2023/09/01 00:36:17;;;;;;;6.90;4.30;;;;;;;20.48;65.14;100930.91;107171;1257;108202;-66
2023/09/01 00:38:46;;;;;;;7.00;4.40;;;;;;;20.45;65.11;100934.20;107355;1257;97835;-66
2023/09/01 00:41:14;;;;;;;6.50;4.60;;;;;;;20.44;65.16;100939.75;107308;1259;98343;-67
2023/09/01 00:43:43;;;;;;;7.80;4.80;;;;;;;20.43;65.21;100940.08;107221;1260;111358;-67
2023/09/01 00:46:12;;;;;;;9.80;4.30;;;;;;;20.44;64.98;100937.57;107191;1257;109936;-66
2023/09/01 00:48:41;;;;;;;7.80;4.40;;;;;;;20.43;64.78;100941.73;107329;1256;107726;-65
2023/09/01 00:51:09;;;;;;;11.10;4.70;;;;;;;20.44;64.71;100942.69;107364;1257;97835;-65
2023/09/01 00:53:37;;;;;;;9.20;4.50;;;;;;;20.43;64.84;100949.33;107388;1257;97767;-64
2023/09/01 00:56:06;;;;;;;5.40;4.30;;;;;;;20.37;64.96;100951.16;107317;1257;111684;-65
2023/09/01 00:58:34;;;;;;;9.30;4.50;;;;;;;20.30;65.10;100952.42;107343;1254;109836;-66
2023/09/01 01:01:04;;;;;;;7.00;4.60;;;;;;;20.29;64.98;100955.85;107407;1256;108481;-69
2023/09/01 01:03:34;;;;;;;7.40;4.50;;;;;;;20.27;65.15;100958.65;107395;1254;97941;-65
2023/09/01 01:06:22;;;;;;;6.00;4.00;;;;;;;20.25;65.04;100958.38;107433;1256;97819;-66
2023/09/01 01:08:57;;;;;;;8.50;4.40;;;;;;;20.20;65.65;100957.94;107366;1256;111748;-66
2023/09/01 01:11:35;;;;;;;7.80;4.40;;;;;;;20.17;65.56;100959.52;107387;1257;109771;-66
2023/09/01 01:14:09;;;;;;;7.80;4.50;;;;;;;20.15;65.77;100957.77;107353;1257;107903;-65
2023/09/01 01:16:38;;;;;;;5.20;3.90;;;;;;;20.14;65.66;100959.62;107384;1254;97857;-64
2023/09/01 01:19:39;;;;;;;6.20;4.20;;;;;;;20.08;65.91;100964.14;107415;1257;97880;-66
2023/09/01 01:22:08;;;;;;;6.80;4.10;;;;;;;20.01;65.92;100963.90;107384;1257;111233;-65
2023/09/01 01:24:36;;;;;;;9.30;4.50;;;;;;;20.00;65.84;100964.93;107270;1254;109944;-67
2023/09/01 01:27:05;;;;;;;8.20;4.70;;;;;;;20.00;66.03;100967.91;107416;1253;107743;-66
2023/09/01 01:29:33;;;;;;;7.40;4.60;;;;;;;20.00;65.96;100969.38;107380;1254;97924;-66
2023/09/01 01:32:01;;;;;;;9.40;4.70;;;;;;;19.99;66.15;100969.41;107453;1254;97846;-65
2023/09/01 01:34:37;;;;;;;5.90;4.40;;;;;;;19.97;66.15;100970.83;107379;1257;110794;-65
2023/09/01 01:37:35;;;;;;;8.30;4.00;;;;;;;19.94;66.23;100970.84;107381;1254;109902;-66
2023/09/01 01:40:06;;;;;;;8.80;4.50;;;;;;;19.90;66.43;100973.15;107279;1256;108457;-66
2023/09/01 01:42:37;;;;;;;5.10;4.50;;;;;;;19.88;66.23;100971.77;107301;1260;98498;-67
2023/09/01 01:45:07;;;;;;;6.60;4.20;;;;;;;19.86;66.07;100973.39;107432;1257;97884;-66
2023/09/01 01:47:36;;;;;;;6.70;3.70;;;;;;;19.83;65.82;100971.58;107400;1257;112400;-67
2023/09/01 01:50:05;;;;;;;5.40;3.70;;;;;;;19.84;65.49;100966.04;107404;1254;110048;-65
2023/09/01 01:52:34;;;;;;;5.10;3.30;;;;;;;19.84;65.44;100966.92;107397;1255;108511;-66
2023/09/01 01:55:06;;;;;;;5.70;3.30;;;;;;;19.82;65.19;100968.15;107350;1259;97850;-65
2023/09/01 01:57:34;;;;;;;5.10;3.50;;;;;;;19.80;65.20;100965.44;107221;1256;98455;-66
2023/09/01 02:00:11;;;;;;;6.60;4.10;;;;;;;19.80;65.17;100963.98;107279;1257;111045;-66
2023/09/01 02:02:45;;;;;;;7.50;3.60;;;;;;;19.80;65.60;100967.08;107423;1257;109976;-67
2023/09/01 02:05:14;;;;;;;10.40;4.00;;;;;;;19.81;65.32;100971.16;107381;1259;108327;-66
2023/09/01 02:07:42;;;;;;;5.80;3.80;;;;;;;19.81;65.35;100973.73;107195;1256;97808;-67
2023/09/01 02:10:11;;;;;;;5.80;3.50;;;;;;;19.82;65.02;100975.21;107424;1254;97958;-66
2023/09/01 02:12:39;;;;;;;5.20;3.30;;;;;;;19.81;65.08;100972.51;107299;1256;111707;-66
2023/09/01 02:15:09;;;;;;;7.40;4.50;;;;;;;19.83;64.95;100973.66;107402;1254;109113;-67
2023/09/01 02:17:38;;;;;;;7.90;3.60;;;;;;;19.86;64.74;100975.12;107467;1254;107595;-68
2023/09/01 02:20:18;;;;;;;6.00;4.10;;;;;;;19.90;64.71;100976.42;107456;1257;97853;-66
2023/09/01 02:22:50;;;;;;;5.90;3.60;;;;;;;19.92;64.40;100976.50;107388;1257;97746;-66
2023/09/01 02:25:18;;;;;;;8.00;3.60;;;;;;;19.98;64.45;100982.92;107383;1254;112508;-66
2023/09/01 02:27:46;;;;;;;8.80;3.50;;;;;;;20.03;64.20;100978.63;107449;1257;107647;-66
2023/09/01 02:30:15;;;;;;;8.30;3.80;;;;;;;20.10;64.11;100981.97;107483;1253;108465;-66
2023/09/01 02:32:43;;;;;;;8.20;4.20;;;;;;;20.12;64.00;100982.75;107366;1257;97837;-66
2023/09/01 02:35:11;;;;;;;8.70;3.90;;;;;;;20.12;64.25;100984.76;107404;1256;98665;-66
2023/09/01 02:37:41;;;;;;;10.70;4.10;;;;;;;20.10;63.88;100983.39;107395;1254;111855;-66
2023/09/01 02:40:12;;;;;;;8.90;3.50;;;;;;;20.08;63.97;100986.16;107352;1254;109344;-65
2023/09/01 02:42:41;;;;;;;5.70;3.60;;;;;;;20.05;63.84;100990.16;107296;1254;107849;-66
2023/09/01 02:45:13;;;;;;;6.60;3.70;;;;;;;20.02;63.86;100993.36;107483;1254;97825;-66
2023/09/01 02:47:43;;;;;;;6.80;3.60;;;;;;;19.95;64.15;100998.48;107406;1257;98363;-65
2023/09/01 02:50:12;;;;;;;5.00;4.00;;;;;;;19.85;64.48;101000.12;107431;1255;111992;-65
2023/09/01 02:52:40;;;;;;;9.00;4.30;;;;;;;19.78;64.23;101004.58;107316;1257;110149;-66
2023/09/01 02:55:09;;;;;;;7.20;3.70;;;;;;;19.74;64.72;101004.93;107411;1254;107734;-66
2023/09/01 02:57:37;;;;;;;6.00;3.80;;;;;;;19.69;64.76;101004.96;107309;1254;97810;-67
2023/09/01 03:00:14;;;;;;;8.00;4.30;;;;;;;19.68;64.52;101004.10;107319;1260;97857;-66
2023/09/01 03:02:44;;;;;;;5.30;3.90;;;;;;;19.68;64.46;101004.19;107416;1253;112221;-65
2023/09/01 03:05:12;;;;;;;5.40;3.70;;;;;;;19.71;64.61;101007.09;107481;1254;109556;-65
2023/09/01 03:07:41;;;;;;;5.30;3.90;;;;;;;19.72;64.46;101007.90;107330;1257;107685;-66
2023/09/01 03:10:09;;;;;;;6.30;4.10;;;;;;;19.73;64.30;101010.05;107363;1256;97857;-66
2023/09/01 03:12:38;;;;;;;10.80;3.70;;;;;;;19.68;64.39;101016.08;107351;1254;97755;-66
2023/09/01 03:15:09;;;;;;;7.70;4.20;;;;;;;19.64;64.33;101017.48;107210;1257;112359;-66
2023/09/01 03:17:37;;;;;;;8.30;3.80;;;;;;;19.60;64.51;101023.23;107285;1254;108991;-67
2023/09/01 03:20:10;;;;;;;7.00;4.10;;;;;;;19.59;64.43;101022.12;107366;1254;106905;-66
2023/09/01 03:22:39;;;;;;;4.70;3.90;;;;;;;19.53;64.77;101024.39;107356;1257;97870;-66
2023/09/01 03:25:09;;;;;;;7.80;3.80;;;;;;;19.50;64.57;101030.77;107363;1254;97714;-65
2023/09/01 03:27:39;;;;;;;6.30;3.80;;;;;;;19.50;64.69;101039.92;107236;1256;112236;-65
2023/09/01 03:30:13;;;;;;;9.90;3.90;;;;;;;19.45;65.06;101045.04;107355;1254;109458;-66
2023/09/01 03:32:42;;;;;;;;;;;;;;;19.38;65.29;101048.20;107328;1254;108617;-66
2023/09/01 03:35:11;;;;;;;6.80;4.60;;;;;;;19.32;65.70;101052.48;107278;1254;97930;-66
2023/09/01 03:37:40;;;;;;;6.60;4.30;;;;;;;19.29;65.64;101052.88;107326;1254;97839;-66
2023/09/01 03:40:09;;;;;;;6.90;4.80;;;;;;;19.27;66.03;101055.59;107349;1254;111752;-66
2023/09/01 03:42:39;;;;;;;6.20;4.60;;;;;;;19.27;65.88;101057.06;107390;1257;110333;-66
2023/09/01 03:45:08;;;;;;;7.30;4.50;;;;;;;19.29;66.07;101058.07;107223;1256;108390;-67
2023/09/01 03:47:36;;;;;;;7.60;4.00;;;;;;;19.32;65.93;101058.95;107383;1254;97829;-66
2023/09/01 03:50:06;;;;;;;11.00;4.60;;;;;;;19.39;65.85;101060.34;107260;1254;97853;-66
2023/09/01 03:52:34;;;;;;;9.10;4.40;;;;;;;19.44;65.70;101057.58;107220;1257;111411;-66
2023/09/01 03:55:04;;;;;;;9.70;4.80;;;;;;;19.48;65.63;101052.56;107379;1256;110626;-65
2023/09/01 03:57:32;;;;;;;8.80;4.50;;;;;;;19.48;65.66;101053.59;107247;1254;108115;-66
2023/09/01 04:00:00;;;;;;;11.40;5.20;;;;;;;19.50;65.84;101055.12;107363;1256;97867;-65
2023/09/01 04:02:28;;;;;;;8.60;4.90;;;;;;;19.49;65.94;101057.14;107401;1257;97795;-66
2023/09/01 04:04:56;;;;;;;9.50;4.80;;;;;;;19.48;65.94;101058.16;107288;1257;111474;-66
2023/09/01 04:07:25;;;;;;;7.90;4.70;;;;;;;19.44;66.22;101060.48;107419;1254;109808;-66
2023/09/01 04:09:54;;;;;;;8.30;4.60;;;;;;;19.44;66.02;101061.05;107365;1257;107969;-66
2023/09/01 04:12:22;;;;;;;9.00;5.20;;;;;;;19.47;66.22;101059.02;107412;1254;97815;-66
2023/09/01 04:14:50;;;;;;;12.00;5.00;;;;;;;19.47;66.09;101063.52;107266;1254;97888;-66
2023/09/01 04:17:19;;;;;;;9.40;5.20;;;;;;;19.49;66.02;101067.54;107409;1254;111419;-66
2023/09/01 04:19:49;;;;;;;14.20;5.40;;;;;;;19.48;66.10;101068.52;107335;1254;109249;-67
2023/09/01 04:22:18;;;;;;;9.10;4.90;;;;;;;19.47;65.91;101069.18;107323;1254;108665;-66
2023/09/01 04:24:47;;;;;;;15.00;5.30;;;;;;;19.50;66.11;101072.63;107321;1254;97903;-67
2023/09/01 04:27:15;;;;;;;11.10;5.10;;;;;;;19.50;66.20;101073.17;107421;1257;97854;-66
2023/09/01 04:29:43;;;;;;;16.10;5.70;;;;;;;19.44;66.53;101076.08;107372;1257;112054;-66
2023/09/01 04:32:33;;;;;;;7.50;4.80;;;;;;;19.34;66.81;101077.86;107372;1253;108664;-66
2023/09/01 04:35:02;;;;;;;9.70;5.00;;;;;;;19.30;67.13;101077.05;107362;1257;107629;-66
2023/09/01 04:37:31;;;;;;;12.70;5.40;;;;;;;19.26;67.10;101078.45;107235;1256;97844;-66
2023/09/01 04:39:59;;;;;;;9.50;5.60;;;;;;;19.18;67.93;101079.48;107302;1257;97863;-67
2023/09/01 04:42:28;;;;;;;13.20;5.20;;;;;;;19.09;68.06;101082.30;107416;1254;110923;-67
2023/09/01 04:44:56;;;;;;;12.70;5.70;;;;;;;19.04;68.30;101081.42;107376;1254;109395;-65
2023/09/01 04:47:25;;;;;;;9.60;5.20;;;;;;;19.04;68.19;101084.40;107338;1258;108281;-66
2023/09/01 04:49:54;;;;;;;11.20;5.70;;;;;;;19.07;68.24;101083.40;107301;1256;97835;-66
2023/09/01 04:52:22;;;;;;;11.70;5.00;;;;;;;19.04;68.83;101089.42;107199;1256;98529;-66
2023/09/01 04:55:09;;;;;;;10.70;6.00;;;;;;;18.99;68.94;101086.45;107212;1256;110113;-66
2023/09/01 04:57:38;;;;;;;11.50;5.50;;;;;;;18.98;69.13;101088.70;107344;1254;110368;-65
2023/09/01 05:00:15;;;;;;;19.40;6.50;;;;;;;18.97;69.41;101086.33;107351;1254;108213;-64
2023/09/01 05:02:45;;;;;;;14.90;6.30;;;;;;;18.96;69.65;101088.87;107374;1254;97957;-65
2023/09/01 05:05:14;;;;;;;15.40;6.00;;;;;;;19.00;69.51;101088.68;107418;1254;97716;-66
2023/09/01 05:07:44;;;;;;;12.80;6.90;;;;;;;18.99;69.60;101090.40;107371;1257;111670;-65
2023/09/01 05:10:13;;;;;;;11.60;6.00;;;;;;;19.03;69.67;101095.74;107368;1254;110031;-67
2023/09/01 05:12:42;;;;;;;15.80;9.10;;;;;;;19.06;69.66;101097.19;107304;1254;108286;-65
2023/09/01 05:15:11;;;;;;;14.30;6.30;;;;;;;19.13;69.62;101097.28;107264;1257;97831;-66
2023/09/01 05:17:39;;;;;;;12.80;5.70;;;;;;;19.19;69.65;101100.25;107377;1254;97847;-66
2023/09/01 05:20:11;;;;;;;12.00;6.40;;;;;;;19.23;69.37;101103.39;107378;1254;111895;-65
2023/09/01 05:22:39;;;;;;;18.90;6.20;;;;;;;19.23;69.53;101108.04;107420;1257;109931;-66
2023/09/01 05:25:08;;;;;;;20.80;6.30;;;;;;;19.24;69.55;101112.83;107383;1254;107860;-66
2023/09/01 05:27:36;;;;;;;13.60;6.30;;;;;;;19.29;69.67;101115.24;107266;1256;97845;-67
2023/09/01 05:30:06;;;;;;;10.70;5.00;;;;;;;19.31;69.42;101115.45;107353;1259;97946;-66
2023/09/01 05:32:34;;;;;;;11.20;5.60;;;;;;;19.37;69.15;101115.70;107459;1257;112615;-67
2023/09/01 05:35:03;;;;;;;14.90;6.20;;;;;;;19.42;69.46;101116.54;107385;1256;109104;-65
2023/09/01 05:37:32;;;;;;;13.60;6.00;;;;;;;19.42;69.39;101120.18;107313;1254;106451;-67
2023/09/01 05:40:01;;;;;;;12.80;5.90;;;;;;;19.46;69.41;101118.50;107330;1257;97860;-67
2023/09/01 05:42:31;;;;;;;15.90;6.40;;;;;;;19.51;69.54;101124.73;107433;1254;98423;-67
2023/09/01 05:44:59;;;;;;;13.10;6.70;;;;;;;19.52;69.61;101124.92;107386;1256;112275;-67
2023/09/01 05:47:29;;;;;;;16.00;6.20;;;;;;;19.57;69.61;101128.73;107341;1254;109699;-67
2023/09/01 05:49:58;;;;;;;16.10;6.20;;;;;;;19.65;69.54;101136.13;107294;1254;108691;-67
2023/09/01 05:52:26;;;;;;;16.00;5.80;;;;;;;19.71;69.43;101132.88;107454;1257;97860;-65
2023/09/01 05:54:54;;;;;;;9.90;5.50;;;;;;;19.78;69.35;101134.54;107372;1253;97851;-65
2023/09/01 05:57:22;;;;;;;11.00;5.70;;;;;;;19.83;69.14;101131.17;107406;1254;111749;-66
2023/09/01 05:59:51;;;;;;;9.70;5.30;;;;;;;19.91;69.23;101132.98;107408;1256;109119;-66
2023/09/01 06:02:19;;;;;;;14.00;5.40;;;;;;;19.99;68.96;101137.33;107404;1254;107982;-66
2023/09/01 06:04:47;;;;;;;9.40;5.90;;;;;;;20.08;68.58;101135.88;107379;1253;97905;-67
2023/09/01 06:07:15;;;;;;;14.20;5.50;;;;;;;20.14;68.49;101140.34;107417;1254;97940;-66
2023/09/01 06:09:44;;;;;;;11.60;5.20;;;;;;;20.18;68.51;101143.02;107372;1256;111427;-67
2023/09/01 06:12:14;;;;;;;9.60;5.30;;;;;;;20.24;68.14;101143.10;107391;1254;109937;-64
2023/09/01 06:14:42;;;;;;;8.80;6.00;;;;;;;20.33;68.08;101147.67;107379;1257;108704;-66
2023/09/01 06:17:12;;;;;;;11.60;5.20;;;;;;;20.38;68.07;101148.94;107264;1254;97945;-66
2023/09/01 06:19:41;;;;;;;10.20;5.30;;;;;;;20.44;67.87;101156.58;107428;1254;97842;-67
2023/09/01 06:22:09;;;;;;;15.60;6.10;;;;;;;20.46;67.47;101161.48;107384;1257;111771;-66
2023/09/01 06:24:37;;;;;;;10.00;5.20;;;;;;;20.50;67.27;101160.56;107442;1257;108739;-67
2023/09/01 06:27:05;;;;;;;17.80;5.50;;;;;;;20.55;67.22;101160.32;107375;1256;107654;-65
2023/09/01 06:29:33;;;;;;;14.30;7.20;;;;;;;20.57;67.22;101158.54;107314;1256;97953;-65
2023/09/01 06:32:02;;;;;;;11.80;6.40;;;;;;;20.60;67.25;101157.20;107346;1257;97850;-67
2023/09/01 06:34:31;;;;;;;10.20;5.50;;;;;;;20.68;67.32;101160.50;107388;1257;112271;-66
2023/09/01 06:36:59;;;;;;;12.90;5.70;;;;;;;20.79;67.37;101162.05;107354;1257;109290;-66
2023/09/01 06:39:27;;;;;;;11.60;6.00;;;;;;;20.83;66.91;101159.73;107319;1257;108552;-66
2023/09/01 06:41:56;;;;;;;13.60;5.50;;;;;;;20.83;66.84;101163.00;107363;1254;97162;-66
2023/09/01 06:44:27;;;;;;;8.10;5.20;;;;;;;20.88;66.89;101166.69;107434;1254;97832;-65
2023/09/01 06:46:56;;;;;;;14.90;6.60;;;;;;;20.99;66.91;101171.53;107396;1257;112134;-66
2023/09/01 06:49:24;;;;;;;12.00;6.40;;;;;;;21.11;66.39;101174.05;107413;1254;109678;-66
2023/09/01 06:51:52;;;;;;;11.10;6.20;;;;;;;21.18;66.12;101183.56;107362;1257;108809;-67
2023/09/01 06:54:21;;;;;;;12.90;6.40;;;;;;;21.23;65.74;101181.05;107386;1254;97827;-66
2023/09/01 06:56:49;;;;;;;16.60;6.20;;;;;;;21.29;65.61;101184.71;107442;1254;97717;-67
2023/09/01 06:59:18;;;;;;;17.10;7.40;;;;;;;21.32;65.59;101182.73;107427;1254;110726;-66
2023/09/01 07:01:46;;;;;;;13.00;5.80;;;;;;;21.34;65.44;101176.44;107407;1257;109198;-66
2023/09/01 07:04:15;;;;;;;12.80;6.00;;;;;;;21.44;65.56;101172.54;107413;1257;109002;-66
2023/09/01 07:06:43;;;;;;;9.40;5.90;;;;;;;21.58;65.55;101170.20;107406;1258;97858;-67
2023/09/01 07:09:11;;;;;;;11.00;5.60;;;;;;;21.72;65.50;101170.13;107382;1257;97915;-66
2023/09/01 07:11:39;;;;;;;9.50;5.70;;;;;;;21.83;65.36;101173.86;107397;1254;111470;-66
2023/09/01 07:14:08;;;;;;;15.60;6.90;;;;;;;21.99;64.53;101175.55;107392;1254;109655;-66
2023/09/01 07:16:36;;;;;;;12.30;6.00;;;;;;;22.07;64.18;101185.67;107375;1257;108263;-67
2023/09/01 07:19:04;;;;;;;13.10;5.50;;;;;;;22.15;64.09;101185.30;107371;1254;97852;-66
2023/09/01 07:21:32;;;;;;;20.90;5.90;;;;;;;22.25;63.84;101186.27;107386;1254;98354;-67
2023/09/01 07:24:01;;;;;;;17.60;6.00;;;;;;;22.38;63.69;101190.46;107360;1254;112314;-68
2023/09/01 07:26:29;;;;;;;13.30;6.10;;;;;;;22.53;63.16;101188.17;107377;1255;109751;-67
2023/09/01 07:28:57;;;;;;;14.10;6.40;;;;;;;22.68;62.92;101190.38;107374;1257;108381;-66
2023/09/01 07:31:25;;;;;;;18.10;6.20;;;;;;;22.82;62.68;101189.61;107366;1257;97831;-67
2023/09/01 07:33:54;;;;;;;11.60;5.70;;;;;;;22.93;62.43;101189.00;107369;1254;97948;-68
2023/09/01 07:36:22;;;;;;;9.90;5.70;;;;;;;23.07;62.00;101191.34;107386;1254;112246;-67
2023/09/01 07:38:51;;;;;;;17.40;5.90;;;;;;;23.17;61.27;101191.32;107423;1257;110098;-66
2023/09/01 07:41:19;;;;;;;13.50;6.00;;;;;;;23.30;61.39;101188.98;107306;1254;109255;-67
2023/09/01 07:43:49;;;;;;;9.80;6.60;;;;;;;23.45;61.22;101189.07;107445;1253;98446;-67
2023/09/01 07:46:17;;;;;;;12.20;6.00;;;;;;;23.58;60.73;101189.44;107397;1254;98411;-67
2023/09/01 07:48:46;;;;;;;9.30;6.00;;;;;;;23.75;60.39;101192.20;107394;1254;111938;-67
2023/09/01 07:51:15;;;;;;;10.10;5.70;;;;;;;23.88;59.82;101197.89;107396;1257;109646;-66
2023/09/01 07:53:43;;;;;;;7.00;4.90;;;;;;;23.97;58.99;101202.17;107444;1257;108960;-67
2023/09/01 07:56:13;;;;;;;9.20;4.90;;;;;;;24.07;58.50;101203.70;107379;1254;97851;-68
2023/09/01 07:58:41;;;;;;;10.30;4.80;;;;;;;24.19;58.63;101207.89;107409;1254;97814;-67
2023/09/01 08:01:09;;;;;;;14.50;5.30;;;;;;;24.37;57.43;101200.60;107380;1257;112648;-67
2023/09/01 08:03:38;;;;;;;17.20;6.00;;;;;;;24.48;57.32;101204.73;107415;1254;109581;-65
2023/09/01 08:06:06;;;;;;;10.30;5.40;;;;;;;24.51;57.45;101207.98;107361;1257;108839;-68
2023/09/01 08:08:34;;;;;;;5.50;4.30;;;;;;;24.49;57.07;101211.24;107246;1256;97743;-67
2023/09/01 08:11:03;;;;;;;9.10;5.00;;;;;;;24.50;57.14;101205.96;107436;1257;97828;-66
2023/09/01 08:13:31;;;;;;;7.40;5.20;;;;;;;24.51;56.85;101208.73;107389;1257;112149;-67
2023/09/01 08:15:59;;;;;;;6.70;5.00;;;;;;;24.52;57.19;101208.52;107380;1254;108954;-67
2023/09/01 08:18:27;;;;;;;11.60;5.60;;;;;;;24.59;56.95;101203.80;107340;1254;108882;-66
2023/09/01 08:20:56;;;;;;;7.90;5.00;;;;;;;24.64;56.67;101210.66;107369;1259;97688;-65
2023/09/01 08:23:24;;;;;;;12.70;4.90;;;;;;;24.76;56.80;101210.77;107410;1254;98464;-66
2023/09/01 08:25:52;;;;;;;8.70;4.70;;;;;;;24.92;56.39;101206.06;107399;1254;111251;-65
2023/09/01 08:28:21;;;;;;;11.80;5.60;;;;;;;25.01;55.92;101200.73;107426;1254;109735;-66
2023/09/01 08:30:49;;;;;;;10.20;4.50;;;;;;;25.06;55.69;101200.74;107278;1257;108426;-65
2023/09/01 08:33:17;;;;;;;12.20;4.50;;;;;;;24.98;54.69;101201.09;107302;1254;97835;-65
2023/09/01 08:35:46;;;;;;;10.30;4.50;;;;;;;24.96;55.14;101196.50;107332;1257;97945;-66
2023/09/01 08:38:14;;;;;;;14.90;4.70;;;;;;;25.06;55.42;101203.05;107374;1257;111922;-65
2023/09/01 08:40:43;;;;;;;5.30;4.40;;;;;;;25.16;54.45;101204.41;107353;1256;110178;-65
2023/09/01 08:43:13;;;;;;;9.50;4.20;;;;;;;25.25;53.97;101206.88;107333;1258;107498;-67
2023/09/01 08:45:41;;;;;;;6.30;4.70;;;;;;;25.40;54.05;101205.89;107315;1257;97820;-66
2023/09/01 08:48:10;;;;;;;8.30;4.30;;;;;;;25.67;54.01;101204.65;107342;1257;98350;-66
2023/09/01 08:50:38;;;;;;;8.60;4.00;;;;;;;25.99;52.63;101200.13;107355;1257;110711;-65
2023/09/01 08:53:06;;;;;;;6.80;4.10;;;;;;;26.17;51.89;101208.17;107355;1256;109213;-65
2023/09/01 08:55:35;;;;;;;8.50;3.90;;;;;;;26.16;51.77;101207.29;107348;1257;108821;-67
2023/09/01 08:58:03;;;;;;;10.10;3.40;;;;;;;26.23;51.94;101212.55;107362;1254;97729;-66
2023/09/01 09:00:32;;;;;;;6.10;3.50;;;;;;;26.30;51.52;101205.15;107374;1255;98375;-67
2023/09/01 09:03:00;;;;;;;7.20;3.80;;;;;;;26.40;51.32;101203.27;107311;1257;111204;-66
2023/09/01 09:05:37;;;;;;;5.50;3.80;;;;;;;26.53;51.00;101198.46;107332;1257;110393;-67
2023/09/01 09:08:07;;;;;;;6.00;3.50;;;;;;;26.52;50.05;101201.38;107342;1257;108826;-66
2023/09/01 09:10:38;;;;;;;10.40;3.90;;;;;;;26.60;49.66;101204.45;107378;1254;97840;-67
2023/09/01 09:13:26;;;;;;;6.20;3.30;;;;;;;26.92;49.30;101203.65;107381;1254;98353;-65
2023/09/01 09:16:15;;;;;;;3.60;2.80;;;;;;;27.35;47.42;101205.20;107402;1254;111743;-66
2023/09/01 09:18:46;;;;;;;8.40;3.20;;;;;;;27.64;46.56;101203.52;107384;1257;110320;-66
2023/09/01 09:21:25;;;;;;;7.90;2.90;;;;;;;27.64;46.25;101205.77;107325;1257;106589;-64
2023/09/01 09:23:59;;;;;;;3.70;3.40;;;;;;;27.90;46.50;101204.73;107358;1257;97837;-66
2023/09/01 09:26:55;;;;;;;6.60;2.90;;;;;;;28.53;45.51;101199.73;107360;1254;97930;-66
2023/09/01 09:29:24;;;;;;;11.30;3.20;;;;;;;28.88;43.54;101205.45;107361;1254;111031;-67
2023/09/01 09:31:52;;;;;;;4.90;2.40;;;;;;;29.14;43.29;101203.90;107398;1254;109924;-67
2023/09/01 09:34:27;;;;;;;4.80;2.60;;;;;;;29.33;42.28;101203.36;107368;1254;108458;-66
2023/09/01 09:36:55;;;;;;;5.20;2.90;;;;;;;29.07;42.55;101204.05;107329;1258;97940;-67
2023/09/01 09:39:33;;;;;;;4.80;3.00;;;;;;;28.93;42.26;101205.41;107296;1256;97867;-67
2023/09/01 09:42:01;;;;;;;5.50;3.20;;;;;;;29.17;42.35;101207.39;107265;1257;112975;-68
2023/09/01 09:44:32;;;;;;;6.00;3.80;;;;;;;30.08;41.39;101211.23;107335;1257;109946;-65
2023/09/01 09:47:10;;;;;;;4.60;2.30;;;;;;;30.27;40.73;101208.02;107389;1258;108689;-68
2023/09/01 09:49:39;;;;;;;4.00;2.90;;;;;;;29.80;40.48;101210.41;107349;1254;97829;-66
2023/09/01 09:52:11;;;;;;;4.30;2.90;;;;;;;29.32;41.11;101212.92;107398;1257;97726;-66
2023/09/01 09:54:43;;;;;;;4.20;2.20;;;;;;;29.08;41.83;101217.20;107334;1258;112882;-66
2023/09/01 09:57:15;;;;;;;6.80;2.70;;;;;;;28.78;42.24;101220.02;106903;1258;620799;-67
2023/09/01 10:00:02;;;;;;;4.00;2.50;;;;;;;28.48;43.14;101224.73;107412;1253;107361;-68
2023/09/01 10:02:47;;;;;;;3.40;2.10;;;;;;;28.12;43.32;101226.14;107350;1254;97842;-67
2023/09/01 10:05:16;;;;;;;3.70;2.70;;;;;;;27.79;42.90;101226.10;107423;1257;98366;-67
2023/09/01 10:07:44;;;;;;;4.70;2.80;;;;;;;28.23;43.03;101222.88;107410;1259;111045;-66
2023/09/01 10:10:13;;;;;;;4.30;2.80;;;;;;;29.41;41.97;101222.58;107362;1256;109702;-65
2023/09/01 10:12:41;;;;;;;4.60;2.30;;;;;;;30.64;38.88;101218.88;107392;1257;108269;-67
2023/09/01 10:15:14;;;;;;;3.40;2.30;;;;;;;31.36;37.46;101226.36;107396;1253;98159;-67
2023/09/01 10:17:42;;;;;;;2.60;2.10;;;;;;;31.70;36.33;101219.00;107441;1258;97953;-66
2023/09/01 10:20:12;;;;;;;3.50;2.00;;;;;;;31.92;36.70;101219.70;107378;1257;111867;-67
2023/09/01 10:22:40;;;;;;;2.60;2.00;;;;;;;31.75;35.43;101217.27;107268;1255;108447;-66
2023/09/01 10:25:15;;;;;;;1.90;1.70;;;;;;;31.17;35.15;101223.56;107425;1254;107907;-67
2023/09/01 10:27:58;;;;;;;5.80;1.80;;;;;;;30.49;36.63;101223.62;107369;1257;97831;-67
2023/09/01 10:30:28;;;;;;;14.20;2.20;;;;;;;29.99;37.63;101223.95;107399;1257;97950;-67
2023/09/01 10:33:12;;;;;;;13.30;2.20;;;;;;;29.62;38.27;101221.95;107364;1257;110926;-66
2023/09/01 10:35:48;;;;;;;5.50;2.00;;;;;;;29.27;38.95;101225.80;107390;1254;108970;-66
2023/09/01 10:38:35;;;;;;;3.60;1.50;;;;;;;29.05;38.81;101227.62;107391;1257;107193;-66
2023/09/01 10:41:03;;;;;;;5.90;2.10;;;;;;;28.95;38.78;101226.93;107338;1257;97816;-65
2023/09/01 10:43:37;;;;;;;3.60;2.20;;;;;;;29.29;38.99;101231.09;107396;1256;97936;-66
2023/09/01 10:46:12;;;;;;;2.60;2.10;;;;;;;29.38;39.04;101225.67;107354;1254;112375;-67
2023/09/01 10:48:47;;;;;;;4.70;2.60;;;;;;;29.51;38.53;101225.55;107416;1257;109670;-66
2023/09/01 10:51:21;;;;;;;3.80;2.00;;;;;;;29.48;38.43;101218.91;107331;1258;108067;-67
2023/09/01 10:53:52;;;;;;;3.80;2.20;;;;;;;29.30;38.19;101222.86;107306;1255;97844;-67
2023/09/01 10:56:20;;;;;;;3.50;2.10;;;;;;;29.20;38.51;101222.08;107394;1257;97735;-66
2023/09/01 10:58:58;;;;;;;2.80;1.90;;;;;;;30.27;37.64;101214.59;107371;1254;111234;-66
2023/09/01 11:01:38;;;;;;;6.30;2.60;;;;;;;31.38;36.20;101221.48;107325;1257;108969;-66
2023/09/01 11:04:21;;;;;;;4.40;1.70;;;;;;;31.49;35.38;101217.84;107297;1254;108117;-67
2023/09/01 11:06:56;;;;;;;10.60;2.00;;;;;;;32.36;34.49;101210.91;107295;1257;97889;-66
2023/09/01 11:09:48;;;;;;;8.70;2.00;;;;;;;33.07;32.89;101207.81;107413;1254;97755;-66
2023/09/01 11:12:18;;;;;;;6.00;2.80;;;;;;;32.84;31.89;101211.68;107280;1257;111674;-66
2023/09/01 11:14:58;;;;;;;5.10;1.90;;;;;;;32.91;31.51;101206.73;107349;1254;109298;-67
2023/09/01 11:17:45;;;;;;;2.00;1.30;;;;;;;33.81;31.02;101195.88;107364;1254;108250;-67
2023/09/01 11:20:18;;;;;;;4.70;2.10;;;;;;;34.51;30.57;101193.58;107381;1254;97825;-67
2023/09/01 11:22:47;;;;;;;3.00;1.60;;;;;;;34.92;29.70;101194.77;107365;1257;97838;-66
2023/09/01 11:25:17;;;;;;;7.50;1.80;;;;;;;34.65;29.29;101189.77;107331;1258;112030;-66